createdAt,value
2017-10-29T00:00:22.046Z,1000.6
2017-10-29T00:01:02.618Z,1000.81
2017-10-29T00:01:43.173Z,1000.7
2017-10-29T00:02:23.728Z,1000.68
2017-10-29T00:03:04.093Z,1000.63
2017-10-29T00:03:44.511Z,1000.54
2017-10-29T00:04:25.137Z,1000.68
2017-10-29T00:05:05.661Z,1000.71
2017-10-29T00:05:46.362Z,1000.68
2017-10-29T00:06:26.918Z,1000.42
2017-10-29T00:07:07.232Z,1000.56
2017-10-29T00:07:47.855Z,1000.56
2017-10-29T00:08:28.222Z,1000.48
2017-10-29T00:09:08.596Z,1000.46
2017-10-29T00:09:49.322Z,1000.46
2017-10-29T00:10:29.688Z,1000.24
2017-10-29T00:11:10.118Z,1000.33
2017-10-29T00:11:50.614Z,1000.32
2017-10-29T00:12:31.028Z,1000.31
2017-10-29T00:13:11.605Z,1000.29
2017-10-29T00:13:52.028Z,1000.22
2017-10-29T00:14:32.567Z,1000.31
2017-10-29T00:15:13.113Z,1000.28
2017-10-29T00:15:53.622Z,1000.2
2017-10-29T00:16:34.120Z,1000.29
2017-10-29T00:17:14.668Z,1000.22
2017-10-29T00:17:55.151Z,1000.29
2017-10-29T00:18:35.556Z,1000.17
2017-10-29T00:19:16.067Z,1000.22
2017-10-29T00:19:56.761Z,1000.22
2017-10-29T00:20:37.163Z,1000.1
2017-10-29T00:21:17.520Z,1000.16
2017-10-29T00:21:58.022Z,1000.04
2017-10-29T00:22:38.509Z,999.99
2017-10-29T00:23:18.879Z,1000.2
2017-10-29T00:23:59.606Z,1000.12
2017-10-29T00:24:39.950Z,999.91
2017-10-29T00:25:20.366Z,1000.05
2017-10-29T00:26:01.042Z,999.94
2017-10-29T00:26:41.563Z,999.97
2017-10-29T00:27:22.191Z,999.95
2017-10-29T00:28:02.620Z,999.75
2017-10-29T00:28:43.155Z,1000
2017-10-29T00:29:23.726Z,999.97
2017-10-29T00:30:04.204Z,999.78
2017-10-29T00:30:44.767Z,999.91
2017-10-29T00:31:25.212Z,999.98
2017-10-29T00:32:05.953Z,999.87
2017-10-29T00:32:46.341Z,999.89
2017-10-29T00:33:26.907Z,999.82
2017-10-29T00:34:07.239Z,999.97
2017-10-29T00:34:47.722Z,999.92
2017-10-29T00:35:28.519Z,1000.11
2017-10-29T00:36:08.964Z,999.7
2017-10-29T00:36:49.367Z,1000
2017-10-29T00:37:29.815Z,999.92
2017-10-29T00:38:10.259Z,999.93
2017-10-29T00:38:50.681Z,999.74
2017-10-29T00:39:31.293Z,999.82
2017-10-29T00:40:11.617Z,999.81
2017-10-29T00:40:52.092Z,999.67
2017-10-29T00:41:32.717Z,999.73
2017-10-29T00:42:13.127Z,999.71
2017-10-29T00:42:53.736Z,999.56
2017-10-29T00:43:34.081Z,999.62
2017-10-29T00:44:14.498Z,999.57
2017-10-29T00:44:55.078Z,999.77
2017-10-29T00:45:35.944Z,999.75
2017-10-29T00:46:16.324Z,999.65
2017-10-29T00:46:56.701Z,999.72
2017-10-29T00:47:37.228Z,999.63
2017-10-29T00:48:17.754Z,999.63
2017-10-29T00:48:58.140Z,999.46
2017-10-29T00:49:38.616Z,999.74
2017-10-29T00:50:19.089Z,999.3
2017-10-29T00:50:59.672Z,999.56
2017-10-29T00:51:40.005Z,999.69
2017-10-29T00:52:20.469Z,999.65
2017-10-29T00:53:01.262Z,999.72
2017-10-29T00:53:41.793Z,999.74
2017-10-29T00:54:22.083Z,999.68
2017-10-29T00:55:02.576Z,999.64
2017-10-29T00:55:42.936Z,999.69
2017-10-29T00:56:23.427Z,999.66
2017-10-29T00:57:04.121Z,999.53
2017-10-29T00:57:44.823Z,999.71
2017-10-29T00:58:25.175Z,999.64
2017-10-29T00:59:06.354Z,999.76
2017-10-29T00:59:46.929Z,999.71
2017-10-29T01:00:27.412Z,999.59
2017-10-29T01:01:08.298Z,999.61
2017-10-29T01:01:48.860Z,999.64
2017-10-29T01:02:29.370Z,999.6
2017-10-29T01:03:09.820Z,999.42
2017-10-29T01:03:50.471Z,999.72
2017-10-29T01:04:31.036Z,999.55
2017-10-29T01:05:11.373Z,999.59
2017-10-29T01:05:51.968Z,999.66
2017-10-29T01:06:32.577Z,999.52
2017-10-29T01:07:13.022Z,999.34
2017-10-29T01:07:53.458Z,999.43
2017-10-29T01:08:33.971Z,999.35
2017-10-29T01:09:14.417Z,999.21
2017-10-29T01:09:54.901Z,999.53
2017-10-29T01:10:35.310Z,999.5
2017-10-29T01:11:15.849Z,999.4
2017-10-29T01:11:56.236Z,999.44
2017-10-29T01:12:36.722Z,999.51
2017-10-29T01:13:17.049Z,999.46
2017-10-29T01:13:57.475Z,999.38
2017-10-29T01:14:37.850Z,999.38
2017-10-29T01:15:18.282Z,999.2
2017-10-29T01:15:58.832Z,999.46
2017-10-29T01:16:39.466Z,999.39
2017-10-29T01:17:19.897Z,999.33
2017-10-29T01:18:00.454Z,999.36
2017-10-29T01:18:41.000Z,999.27
2017-10-29T01:19:21.614Z,999.19
2017-10-29T01:20:02.052Z,999.32
2017-10-29T01:20:42.815Z,999.15
2017-10-29T01:21:23.411Z,998.76
2017-10-29T01:22:03.793Z,999.22
2017-10-29T01:22:44.323Z,999.18
2017-10-29T01:23:24.773Z,999.13
2017-10-29T01:24:05.136Z,999.21
2017-10-29T01:24:45.661Z,999.32
2017-10-29T01:25:26.271Z,999.38
2017-10-29T01:26:06.670Z,999.36
2017-10-29T01:26:47.036Z,999.27
2017-10-29T01:27:27.610Z,999.32
2017-10-29T01:28:08.137Z,999.18
2017-10-29T01:28:48.603Z,999.03
2017-10-29T01:29:29.118Z,999.26
2017-10-29T01:30:09.504Z,999.39
2017-10-29T01:30:50.058Z,999.32
2017-10-29T01:31:30.764Z,999.27
2017-10-29T01:32:11.298Z,999.06
2017-10-29T01:32:51.811Z,999.31
2017-10-29T01:33:32.320Z,999.13
2017-10-29T01:34:12.700Z,999.17
2017-10-29T01:34:53.139Z,999.06
2017-10-29T01:35:33.771Z,999.14
2017-10-29T01:36:14.331Z,998.91
2017-10-29T01:36:54.748Z,999.15
2017-10-29T01:37:35.341Z,998.81
2017-10-29T01:38:15.798Z,999.03
2017-10-29T01:38:56.419Z,999.17
2017-10-29T01:39:37.225Z,999.11
2017-10-29T01:40:17.689Z,999.04
2017-10-29T01:40:58.019Z,998.98
2017-10-29T01:41:38.508Z,999.07
2017-10-29T01:42:18.952Z,999.14
2017-10-29T01:42:59.484Z,998.86
2017-10-29T01:43:39.984Z,999.02
2017-10-29T01:44:20.362Z,998.92
2017-10-29T01:45:00.928Z,999.18
2017-10-29T01:45:41.235Z,998.97
2017-10-29T01:46:21.696Z,999.06
2017-10-29T01:47:02.227Z,999.05
2017-10-29T01:47:42.747Z,998.86
2017-10-29T01:48:23.217Z,998.91
2017-10-29T01:49:03.781Z,999.02
2017-10-29T01:49:44.230Z,998.94
2017-10-29T01:50:24.975Z,998.95
2017-10-29T01:51:05.296Z,998.82
2017-10-29T01:51:45.690Z,999
2017-10-29T01:52:26.086Z,998.89
2017-10-29T01:53:06.668Z,998.88
2017-10-29T01:53:47.189Z,998.37
2017-10-29T01:54:27.637Z,998.72
2017-10-29T01:55:08.000Z,998.96
2017-10-29T01:55:48.446Z,998.87
2017-10-29T01:56:28.918Z,998.76
2017-10-29T01:57:09.516Z,998.84
2017-10-29T01:57:49.935Z,998.78
2017-10-29T01:58:30.376Z,998.54
2017-10-29T01:59:10.965Z,998.7
2017-10-29T01:59:51.464Z,998.83
2017-10-29T02:00:31.904Z,998.76
2017-10-29T02:01:12.363Z,998.65
2017-10-29T02:01:53.118Z,998.85
2017-10-29T02:02:33.716Z,998.8
2017-10-29T02:03:14.222Z,998.93
2017-10-29T02:03:54.771Z,998.53
2017-10-29T02:04:35.239Z,998.73
2017-10-29T02:05:15.766Z,998.75
2017-10-29T02:05:56.208Z,998.77
2017-10-29T02:06:36.748Z,998.8
2017-10-29T02:07:17.190Z,998.64
2017-10-29T02:07:57.669Z,998.75
2017-10-29T02:08:38.094Z,998.76
2017-10-29T02:09:18.545Z,998.81
2017-10-29T02:09:58.910Z,998.79
2017-10-29T02:12:37.422Z,998.63
2017-10-29T02:13:30.839Z,998.5
2017-10-29T02:14:23.369Z,998.68
2017-10-29T02:15:23.195Z,998.41
2017-10-29T02:16:17.729Z,998.47
2017-10-29T02:17:12.151Z,998.59
2017-10-29T02:18:11.714Z,998.62
2017-10-29T02:19:08.153Z,998.6
2017-10-29T02:21:47.725Z,998.47
2017-10-29T02:23:49.924Z,998.43
2017-10-29T02:24:31.877Z,998.57
2017-10-29T02:25:12.364Z,998.46
2017-10-29T02:25:52.804Z,998.43
2017-10-29T02:26:33.226Z,998.38
2017-10-29T02:27:13.741Z,998.36
2017-10-29T02:27:54.219Z,998.27
2017-10-29T02:28:34.811Z,998.3
2017-10-29T02:29:15.158Z,997.99
2017-10-29T02:29:55.570Z,998.25
2017-10-29T02:30:36.147Z,998.22
2017-10-29T02:31:16.517Z,998.23
2017-10-29T02:31:56.953Z,998.31
2017-10-29T02:32:37.367Z,998.24
2017-10-29T02:33:18.015Z,998.16
2017-10-29T02:33:58.396Z,998.13
2017-10-29T02:34:38.847Z,998.22
2017-10-29T02:35:19.314Z,997.79
2017-10-29T02:35:59.759Z,998.08
2017-10-29T02:36:40.118Z,997.88
2017-10-29T02:37:20.753Z,998.03
2017-10-29T02:38:01.217Z,998.01
2017-10-29T02:40:31.751Z,997.9
2017-10-29T02:41:12.677Z,997.97
2017-10-29T02:41:53.137Z,998.01
2017-10-29T02:42:33.665Z,997.84
2017-10-29T02:43:14.155Z,997.81
2017-10-29T02:43:54.897Z,997.98
2017-10-29T02:44:35.372Z,997.96
2017-10-29T02:45:16.044Z,997.93
2017-10-29T02:45:56.374Z,997.96
2017-10-29T02:46:36.874Z,997.95
2017-10-29T02:47:18.019Z,997.95
2017-10-29T02:47:57.886Z,997.99
2017-10-29T02:48:38.337Z,998.05
2017-10-29T02:49:18.923Z,997.85
2017-10-29T02:49:59.471Z,997.88
2017-10-29T02:50:40.027Z,997.91
2017-10-29T02:51:20.590Z,997.86
2017-10-29T02:52:00.800Z,997.79
2017-10-29T02:52:41.331Z,997.78
2017-10-29T02:53:21.773Z,997.99
2017-10-29T02:54:02.165Z,997.85
2017-10-29T02:54:42.662Z,997.81
2017-10-29T02:55:23.030Z,997.83
2017-10-29T02:56:03.716Z,997.77
2017-10-29T02:56:44.008Z,997.83
2017-10-29T02:57:24.578Z,997.86
2017-10-29T02:58:05.002Z,997.85
2017-10-29T02:58:45.471Z,998
2017-10-29T02:59:26.079Z,997.8
2017-10-29T03:00:06.675Z,997.75
2017-10-29T03:00:47.080Z,997.86
2017-10-29T03:01:27.569Z,997.75
2017-10-29T03:02:08.014Z,997.84
2017-10-29T03:02:48.476Z,997.66
2017-10-29T03:03:28.872Z,997.8
2017-10-29T03:04:09.336Z,997.95
2017-10-29T03:04:49.796Z,997.95
2017-10-29T03:05:30.457Z,997.86
2017-10-29T03:06:10.973Z,997.97
2017-10-29T03:06:51.518Z,997.98
2017-10-29T03:07:31.867Z,997.88
2017-10-29T03:08:12.288Z,997.8
2017-10-29T03:08:52.800Z,997.95
2017-10-29T03:09:33.357Z,997.9
2017-10-29T03:10:13.821Z,997.97
2017-10-29T03:10:54.424Z,997.86
2017-10-29T03:11:34.916Z,997.76
2017-10-29T03:12:15.315Z,997.93
2017-10-29T03:12:56.003Z,997.93
2017-10-29T03:13:36.381Z,998
2017-10-29T03:14:16.906Z,998.01
2017-10-29T03:14:57.266Z,997.78
2017-10-29T03:15:37.935Z,997.99
2017-10-29T03:16:18.470Z,998.02
2017-10-29T03:16:58.978Z,997.66
2017-10-29T03:17:39.373Z,997.91
2017-10-29T03:18:19.889Z,997.26
2017-10-29T03:19:00.595Z,997.83
2017-10-29T03:19:41.126Z,997.53
2017-10-29T03:20:21.541Z,997.87
2017-10-29T03:21:02.003Z,998
2017-10-29T03:21:42.498Z,997.97
2017-10-29T03:22:23.109Z,998
2017-10-29T03:23:03.595Z,997.97
2017-10-29T03:23:44.395Z,997.97
2017-10-29T03:24:24.980Z,997.97
2017-10-29T03:25:05.514Z,997.77
2017-10-29T03:25:45.972Z,997.99
2017-10-29T03:26:26.410Z,998.02
2017-10-29T03:27:07.052Z,997.95
2017-10-29T03:27:47.678Z,997.81
2017-10-29T03:28:28.135Z,997.91
2017-10-29T03:29:08.644Z,997.86
2017-10-29T03:29:49.185Z,997.73
2017-10-29T03:30:29.744Z,997.86
2017-10-29T03:31:10.091Z,997.89
2017-10-29T03:31:50.822Z,997.94
2017-10-29T03:32:31.511Z,997.88
2017-10-29T03:33:12.238Z,997.82
2017-10-29T03:33:52.900Z,998
2017-10-29T03:34:33.420Z,997.7
2017-10-29T03:35:13.871Z,997.79
2017-10-29T03:35:54.345Z,997.96
2017-10-29T03:36:35.027Z,997.9
2017-10-29T03:37:15.629Z,997.89
2017-10-29T03:37:56.058Z,997.92
2017-10-29T03:38:36.612Z,997.93
2017-10-29T03:39:17.342Z,998.04
2017-10-29T03:39:57.736Z,998.11
2017-10-29T03:40:38.275Z,998.04
2017-10-29T03:41:18.951Z,997.76
2017-10-29T03:41:59.216Z,998.02
2017-10-29T03:42:39.787Z,998.06
2017-10-29T03:43:20.356Z,998.15
2017-10-29T03:44:00.964Z,998.07
2017-10-29T03:44:41.396Z,998.11
2017-10-29T03:45:21.952Z,998.04
2017-10-29T03:46:02.480Z,998.07
2017-10-29T03:46:42.864Z,998.16
2017-10-29T03:47:23.293Z,998.12
2017-10-29T03:48:03.714Z,998.05
2017-10-29T03:48:44.211Z,998.2
2017-10-29T03:49:24.711Z,998.14
2017-10-29T03:50:05.277Z,998.19
2017-10-29T03:50:45.756Z,998.45
2017-10-29T03:51:26.323Z,998.28
2017-10-29T03:52:07.101Z,998.24
2017-10-29T03:52:47.674Z,998.36
2017-10-29T03:53:28.078Z,998.37
2017-10-29T03:54:08.501Z,998.39
2017-10-29T03:54:49.014Z,998.27
2017-10-29T03:55:29.611Z,998.39
2017-10-29T03:56:10.131Z,998.33
2017-10-29T03:56:50.473Z,998.43
2017-10-29T03:57:30.920Z,998.48
2017-10-29T03:58:11.725Z,998.43
2017-10-29T03:58:52.451Z,998.18
2017-10-29T03:59:32.903Z,998.37
2017-10-29T04:00:13.458Z,998.31
2017-10-29T04:00:53.976Z,998.41
2017-10-29T04:01:34.585Z,998.4
2017-10-29T04:44:34.842Z,998.35
2017-10-29T04:45:14.795Z,998.38
2017-10-29T04:45:55.269Z,998.41
2017-10-29T04:46:35.746Z,998.27
2017-10-29T04:47:16.368Z,997.71
2017-10-29T04:47:56.853Z,998.64
2017-10-29T04:48:37.251Z,998.54
2017-10-29T04:49:17.654Z,998.51
2017-10-29T04:49:58.101Z,998.58
2017-10-29T04:50:38.793Z,998.52
2017-10-29T04:51:19.397Z,998.57
2017-10-29T04:51:59.714Z,998.6
2017-10-29T04:52:40.107Z,998.53
2017-10-29T04:53:20.971Z,998.53
2017-10-29T04:54:01.498Z,998.57
2017-10-29T04:54:41.989Z,998.32
2017-10-29T04:55:22.415Z,998.32
2017-10-29T04:56:02.895Z,998.45
2017-10-29T04:56:43.518Z,998.45
2017-10-29T04:57:23.806Z,998.57
2017-10-29T04:58:04.255Z,998.47
2017-10-29T04:58:44.841Z,998.56
2017-10-29T04:59:25.382Z,998.65
2017-10-29T05:00:05.766Z,998.64
2017-10-29T05:00:46.256Z,998.59
2017-10-29T05:01:26.896Z,998.67
2017-10-29T05:02:07.555Z,998.56
2017-10-29T05:02:47.940Z,998.6
2017-10-29T05:03:28.541Z,998.74
2017-10-29T05:04:09.212Z,998.5
2017-10-29T05:04:49.743Z,998.46
2017-10-29T05:05:30.251Z,998.61
2017-10-29T05:06:10.765Z,998.63
2017-10-29T05:06:51.390Z,998.84
2017-10-29T05:07:31.862Z,998.52
2017-10-29T05:08:12.453Z,998.72
2017-10-29T05:08:52.893Z,998.73
2017-10-29T05:09:33.204Z,998.74
2017-10-29T05:10:13.761Z,998.62
2017-10-29T05:10:54.143Z,998.64
2017-10-29T05:11:34.764Z,998.77
2017-10-29T05:12:15.198Z,998.56
2017-10-29T05:12:55.744Z,998.74
2017-10-29T05:13:36.250Z,998.77
2017-10-29T05:14:16.704Z,998.6
2017-10-29T05:14:57.450Z,998.59
2017-10-29T05:15:38.047Z,998.7
2017-10-29T05:16:18.466Z,998.61
2017-10-29T05:16:58.894Z,998.57
2017-10-29T05:17:39.518Z,998.83
2017-10-29T05:18:19.975Z,998.86
2017-10-29T05:19:00.347Z,998.87
2017-10-29T05:19:40.841Z,998.88
2017-10-29T05:20:21.317Z,998.68
2017-10-29T05:21:01.750Z,998.81
2017-10-29T05:21:42.201Z,999.02
2017-10-29T05:22:22.741Z,998.91
2017-10-29T05:23:03.178Z,998.9
2017-10-29T05:23:43.738Z,999.03
2017-10-29T05:24:24.308Z,999.02
2017-10-29T05:25:04.676Z,999.06
2017-10-29T05:25:45.151Z,998.98
2017-10-29T05:26:25.560Z,999.16
2017-10-29T05:27:06.032Z,999.06
2017-10-29T05:27:46.487Z,998.99
2017-10-29T05:28:26.923Z,999.31
2017-10-29T05:29:07.378Z,999.32
2017-10-29T05:29:47.817Z,999.39
2017-10-29T05:30:28.380Z,999.61
2017-10-29T05:31:08.835Z,999.56
2017-10-29T05:31:49.349Z,999.61
2017-10-29T05:32:29.941Z,999.85
2017-10-29T05:33:10.356Z,999.6
2017-10-29T05:33:50.989Z,999.83
2017-10-29T05:34:31.442Z,999.77
2017-10-29T05:35:11.866Z,999.37
2017-10-29T05:35:52.344Z,999.62
2017-10-29T05:36:32.772Z,999.73
2017-10-29T05:37:13.322Z,999.87
2017-10-29T05:37:53.803Z,999.86
2017-10-29T05:38:34.230Z,999.82
2017-10-29T05:39:14.740Z,999.89
2017-10-29T05:39:55.151Z,999.92
2017-10-29T05:40:35.778Z,999.99
2017-10-29T05:41:16.155Z,999.96
2017-10-29T05:41:56.610Z,999.93
2017-10-29T05:42:37.168Z,999.95
2017-10-29T05:43:17.986Z,999.79
2017-10-29T05:43:58.330Z,999.8
2017-10-29T05:44:39.226Z,999.82
2017-10-29T05:45:19.567Z,999.76
2017-10-29T05:46:00.017Z,999.86
2017-10-29T05:46:40.432Z,999.91
2017-10-29T05:47:20.899Z,999.64
2017-10-29T05:48:01.576Z,999.89
2017-10-29T05:48:42.170Z,999.89
2017-10-29T05:49:22.514Z,1000.03
2017-10-29T05:50:02.988Z,999.81
2017-10-29T05:50:43.565Z,999.77
2017-10-29T05:51:24.416Z,999.78
2017-10-29T05:52:05.100Z,999.87
2017-10-29T05:52:45.562Z,999.74
2017-10-29T05:53:25.936Z,999.74
2017-10-29T05:54:06.328Z,999.78
2017-10-29T05:54:46.756Z,999.81
2017-10-29T05:55:27.210Z,999.81
2017-10-29T05:56:07.630Z,999.83
2017-10-29T05:56:48.020Z,999.85
2017-10-29T05:57:28.528Z,999.88
2017-10-29T05:58:09.015Z,999.8
2017-10-29T05:58:49.457Z,999.74
2017-10-29T05:59:29.910Z,999.79
2017-10-29T06:00:10.419Z,999.88
2017-10-29T06:00:50.792Z,999.86
2017-10-29T06:01:31.229Z,999.82
2017-10-29T06:02:12.030Z,999.83
2017-10-29T06:02:52.381Z,999.91
2017-10-29T06:03:33.163Z,999.91
2017-10-29T06:06:17.237Z,1000.03
2017-10-29T06:06:57.600Z,1000.07
2017-10-29T06:07:38.071Z,1000.05
2017-10-29T06:08:18.790Z,1000.16
2017-10-29T06:08:59.048Z,1000.09
2017-10-29T06:09:39.580Z,1000.09
2017-10-29T06:10:20.134Z,1000.1
2017-10-29T06:11:00.554Z,1000.2
2017-10-29T06:11:40.959Z,1000.18
2017-10-29T06:12:21.426Z,1000.24
2017-10-29T06:13:02.044Z,1000.07
2017-10-29T06:13:42.594Z,1000.21
2017-10-29T06:14:23.110Z,1000.32
2017-10-29T06:15:03.513Z,1000.39
2017-10-29T06:15:43.966Z,1000.38
2017-10-29T06:16:24.586Z,1000.39
2017-10-29T06:17:04.992Z,1000.34
2017-10-29T06:17:45.373Z,1000.3
2017-10-29T06:18:25.812Z,1000.29
2017-10-29T06:19:06.351Z,1000.46
2017-10-29T06:19:46.792Z,1000.4
2017-10-29T06:20:27.273Z,1000.49
2017-10-29T06:21:07.716Z,1000.46
2017-10-29T06:21:48.195Z,1000.6
2017-10-29T06:22:28.560Z,1000.46
2017-10-29T06:23:09.027Z,1000.6
2017-10-29T06:23:49.471Z,1000.57
2017-10-29T06:24:31.635Z,1000.6
2017-10-29T06:25:12.185Z,1000.6
2017-10-29T06:25:52.642Z,1000.69
2017-10-29T06:26:33.049Z,1000.6
2017-10-29T06:27:13.633Z,1000.57
2017-10-29T06:27:54.023Z,1000.65
2017-10-29T06:28:34.537Z,1000.69
2017-10-29T06:29:14.951Z,1000.45
2017-10-29T06:29:55.589Z,1000.72
2017-10-29T06:30:36.114Z,1000.81
2017-10-29T06:31:16.646Z,1000.81
2017-10-29T06:31:57.035Z,1000.8
2017-10-29T06:32:37.552Z,1000.83
2017-10-29T06:33:18.135Z,1000.84
2017-10-29T06:33:58.549Z,1000.96
2017-10-29T06:34:39.006Z,1000.81
2017-10-29T06:35:19.386Z,1000.83
2017-10-29T06:36:00.006Z,1000.9
2017-10-29T06:36:40.323Z,1000.86
2017-10-29T06:37:20.998Z,1000.81
2017-10-29T06:38:01.570Z,1000.87
2017-10-29T06:38:41.877Z,1000.82
2017-10-29T06:39:22.375Z,1000.77
2017-10-29T06:40:02.903Z,1000.74
2017-10-29T06:40:43.329Z,1000.79
2017-10-29T06:41:23.759Z,1000.79
2017-10-29T06:42:04.171Z,1000.78
2017-10-29T06:42:44.745Z,1000.87
2017-10-29T06:43:25.114Z,1000.86
2017-10-29T06:44:05.967Z,1000.93
2017-10-29T06:44:46.418Z,1000.91
2017-10-29T06:45:26.800Z,1000.93
2017-10-29T06:46:07.282Z,1000.95
2017-10-29T06:46:47.766Z,1000.97
2017-10-29T06:47:28.393Z,1001.01
2017-10-29T06:48:08.758Z,1001.03
2017-10-29T06:48:49.287Z,1001.07
2017-10-29T06:49:29.722Z,1001.13
2017-10-29T06:50:10.144Z,1001.15
2017-10-29T06:50:50.513Z,1001.18
2017-10-29T06:51:31.018Z,1001.22
2017-10-29T06:52:12.053Z,1001.23
2017-10-29T06:52:52.406Z,1001.27
2017-10-29T06:53:33.259Z,1001.13
2017-10-29T06:54:13.910Z,1001.33
2017-10-29T06:54:54.347Z,1001.42
2017-10-29T06:55:34.856Z,1001.45
2017-10-29T06:56:15.252Z,1001.51
2017-10-29T06:56:55.828Z,1001.49
2017-10-29T06:57:36.285Z,1001.44
2017-10-29T06:58:16.811Z,1001.57
2017-10-29T06:58:57.290Z,1001.39
2017-10-29T06:59:37.650Z,1001.63
2017-10-29T07:00:18.101Z,1001.61
2017-10-29T07:00:58.589Z,1001.52
2017-10-29T07:01:39.068Z,1001.57
2017-10-29T07:02:19.768Z,1001.7
2017-10-29T07:03:00.303Z,1001.77
2017-10-29T07:03:40.870Z,1001.78
2017-10-29T07:04:21.541Z,1001.78
2017-10-29T07:05:01.693Z,1001.64
2017-10-29T07:05:42.053Z,1001.76
2017-10-29T07:06:22.488Z,1001.72
2017-10-29T07:07:03.056Z,1001.81
2017-10-29T07:07:44.119Z,1001.87
2017-10-29T07:08:24.369Z,1001.88
2017-10-29T07:09:04.809Z,1001.91
2017-10-29T07:09:45.468Z,1001.95
2017-10-29T07:10:25.911Z,1002
2017-10-29T07:11:06.359Z,1002
2017-10-29T07:11:46.874Z,1002.01
2017-10-29T07:12:27.285Z,1002.01
2017-10-29T07:13:07.717Z,1002.15
2017-10-29T07:13:48.356Z,1002.03
2017-10-29T07:14:28.875Z,1002.09
2017-10-29T07:15:09.188Z,1002.12
2017-10-29T07:15:49.712Z,1002.08
2017-10-29T07:16:30.223Z,1002.14
2017-10-29T07:17:10.668Z,1001.98
2017-10-29T07:17:51.101Z,1002.05
2017-10-29T07:18:31.510Z,1002.11
2017-10-29T07:19:12.148Z,1002.13
2017-10-29T07:19:52.517Z,1002.17
2017-10-29T07:20:32.928Z,1002.26
2017-10-29T07:21:13.472Z,1002.32
2017-10-29T07:21:54.150Z,1002.31
2017-10-29T07:22:34.618Z,1002.4
2017-10-29T07:23:15.138Z,1002.36
2017-10-29T07:23:55.710Z,1002.33
2017-10-29T07:24:36.462Z,1002.35
2017-10-29T07:25:16.858Z,1002.46
2017-10-29T07:25:57.240Z,1002.45
2017-10-29T07:26:37.804Z,1002.46
2017-10-29T07:27:18.373Z,1002.5
2017-10-29T07:27:58.829Z,1002.45
2017-10-29T07:28:39.418Z,1002.52
2017-10-29T07:29:19.973Z,1002.43
2017-10-29T07:30:00.323Z,1002.57
2017-10-29T07:30:40.925Z,1002.58
2017-10-29T07:31:21.313Z,1002.57
2017-10-29T07:32:01.864Z,1002.55
2017-10-29T07:32:42.523Z,1002.65
2017-10-29T07:33:22.967Z,1002.61
2017-10-29T07:34:03.447Z,1002.62
2017-10-29T07:36:11.451Z,1002.72
2017-10-29T07:39:54.084Z,1002.78
2017-10-29T07:40:33.672Z,1002.83
2017-10-29T07:41:14.117Z,1002.79
2017-10-29T07:41:54.701Z,1002.75
2017-10-29T07:42:35.153Z,1002.92
2017-10-29T07:43:15.609Z,1002.84
2017-10-29T07:43:56.158Z,1002.89
2017-10-29T07:44:36.694Z,1002.94
2017-10-29T07:45:17.097Z,1002.92
2017-10-29T07:45:57.492Z,1002.98
2017-10-29T07:46:37.838Z,1002.95
2017-10-29T07:47:18.290Z,1002.97
2017-10-29T07:47:58.905Z,1003
2017-10-29T07:48:39.479Z,1002.98
2017-10-29T07:49:20.077Z,1003.02
2017-10-29T07:50:00.451Z,1003.08
2017-10-29T07:50:41.005Z,1003.15
2017-10-29T07:51:21.479Z,1003.07
2017-10-29T07:52:01.892Z,1003.14
2017-10-29T07:52:42.447Z,1003.16
2017-10-29T07:53:22.860Z,1003.19
2017-10-29T07:54:03.251Z,1003.2
2017-10-29T07:54:43.551Z,1003.18
2017-10-29T07:55:24.127Z,1003.2
2017-10-29T07:56:04.988Z,1003.27
2017-10-29T07:56:45.280Z,1003.23
2017-10-29T07:57:25.624Z,1003.19
2017-10-29T07:58:06.074Z,1003.22
2017-10-29T07:58:46.643Z,1003.24
2017-10-29T07:59:27.125Z,1003.32
2017-10-29T08:00:07.614Z,1003.21
2017-10-29T08:00:48.027Z,1003.25
2017-10-29T08:01:28.525Z,1003.29
2017-10-29T08:02:08.952Z,1003.26
2017-10-29T08:02:49.389Z,1003.39
2017-10-29T08:03:29.821Z,1003.27
2017-10-29T08:04:10.276Z,1003.26
2017-10-29T08:04:50.717Z,1003.31
2017-10-29T08:05:31.125Z,1003.33
2017-10-29T08:06:11.608Z,1003.32
2017-10-29T08:08:08.749Z,1003.39
2017-10-29T08:08:48.529Z,1003.34
2017-10-29T08:09:28.906Z,1003.26
2017-10-29T08:10:09.504Z,1003.5
2017-10-29T08:10:50.014Z,1003.43
2017-10-29T08:11:30.392Z,1003.44
2017-10-29T08:12:11.060Z,1003.44
2017-10-29T08:12:51.489Z,1003.5
2017-10-29T08:13:32.048Z,1003.53
2017-10-29T08:14:12.463Z,1003.55
2017-10-29T08:14:52.992Z,1003.51
2017-10-29T08:15:33.284Z,1003.5
2017-10-29T08:16:13.770Z,1003.49
2017-10-29T08:16:54.192Z,1003.55
2017-10-29T08:17:34.553Z,1003.52
2017-10-29T08:18:14.974Z,1003.48
2017-10-29T08:18:55.648Z,1003.54
2017-10-29T08:19:35.937Z,1003.59
2017-10-29T08:20:16.366Z,1003.51
2017-10-29T08:20:57.045Z,1003.55
2017-10-29T08:21:37.487Z,1003.59
2017-10-29T08:22:17.960Z,1003.67
2017-10-29T08:22:58.454Z,1003.56
2017-10-29T08:23:38.908Z,1003.62
2017-10-29T08:24:19.376Z,1003.57
2017-10-29T08:24:59.805Z,1003.54
2017-10-29T08:25:40.321Z,1003.57
2017-10-29T08:26:20.765Z,1003.61
2017-10-29T08:27:01.138Z,1003.56
2017-10-29T08:27:41.697Z,1003.65
2017-10-29T08:28:22.137Z,1003.48
2017-10-29T08:29:02.658Z,1003.66
2017-10-29T08:29:43.104Z,1003.57
2017-10-29T08:30:23.751Z,1003.67
2017-10-29T08:31:04.337Z,1003.78
2017-10-29T08:31:44.806Z,1003.76
2017-10-29T08:34:09.163Z,1003.75
2017-10-29T08:35:05.403Z,1003.76
2017-10-29T08:36:01.465Z,1003.86
2017-10-29T08:36:56.834Z,1003.93
2017-10-29T08:37:58.721Z,1003.89
2017-10-29T08:38:54.751Z,1003.97
2017-10-29T08:41:31.437Z,1003.99
2017-10-29T08:42:25.038Z,1004.03
2017-10-29T08:47:23.103Z,1004.05
2017-10-29T08:50:21.598Z,1004.02
2017-10-29T08:51:02.080Z,1004.12
2017-10-29T08:51:42.440Z,1004.12
2017-10-29T08:52:22.954Z,1004.09
2017-10-29T08:53:03.329Z,1004.07
2017-10-29T08:53:43.679Z,1004.18
2017-10-29T08:54:24.158Z,1004.07
2017-10-29T08:55:04.672Z,1004.17
2017-10-29T08:55:45.266Z,1004.22
2017-10-29T08:56:25.815Z,1004.24
2017-10-29T08:57:06.391Z,1004.13
2017-10-29T08:57:47.140Z,1004.25
2017-10-29T08:58:27.536Z,1004.25
2017-10-29T08:59:08.015Z,1004.27
2017-10-29T08:59:48.532Z,1004.26
2017-10-29T09:00:28.974Z,1004.32
2017-10-29T09:01:09.433Z,1004.29
2017-10-29T09:01:49.822Z,1004.34
2017-10-29T09:02:30.122Z,1004.25
2017-10-29T09:03:10.617Z,1004.38
2017-10-29T09:03:51.082Z,1004.35
2017-10-29T09:04:31.589Z,1004.43
2017-10-29T09:05:12.145Z,1004.2
2017-10-29T09:05:52.620Z,1004.31
2017-10-29T09:06:33.102Z,1004.29
2017-10-29T09:07:13.613Z,1004.45
2017-10-29T09:07:54.109Z,1004.05
2017-10-29T09:08:34.619Z,1004.29
2017-10-29T09:09:15.028Z,1004.3
2017-10-29T09:09:56.502Z,1004.38
2017-10-29T09:10:37.135Z,1004.42
2017-10-29T09:11:17.410Z,1004.49
2017-10-29T09:11:57.785Z,1004.37
2017-10-29T09:12:38.218Z,1004.4
2017-10-29T09:13:19.007Z,1004.45
2017-10-29T09:13:59.540Z,1004.42
2017-10-29T09:14:40.026Z,1004.45
2017-10-29T09:15:20.588Z,1004.39
2017-10-29T09:16:01.019Z,1004.35
2017-10-29T09:16:41.555Z,1004.35
2017-10-29T09:17:22.079Z,1004.51
2017-10-29T09:18:02.460Z,1004.41
2017-10-29T09:18:43.030Z,1004.47
2017-10-29T09:19:23.347Z,1004.53
2017-10-29T09:20:03.857Z,1004.42
2017-10-29T09:20:45.338Z,1004.46
2017-10-29T09:21:25.764Z,1004.38
2017-10-29T09:22:06.318Z,1004.44
2017-10-29T09:22:46.764Z,1004.5
2017-10-29T09:23:27.296Z,1004.48
2017-10-29T09:24:07.676Z,1004.46
2017-10-29T09:24:48.137Z,1004.48
2017-10-29T09:25:28.645Z,1004.49
2017-10-29T09:26:09.173Z,1004.42
2017-10-29T09:26:49.602Z,1004.44
2017-10-29T09:27:30.006Z,1004.55
2017-10-29T09:28:10.491Z,1004.52
2017-10-29T09:28:50.948Z,1004.45
2017-10-29T09:29:31.453Z,1004.5
2017-10-29T09:30:12.648Z,1004.53
2017-10-29T09:30:53.153Z,1004.55
2017-10-29T09:31:33.602Z,1004.49